Time;durP1;ratioP1;P1;durP2;ratioP2;P2;SDS_P1;SDS_P2;PMS_P1;PMS_P2;Temp;Humidity;BMP_temperature;BMP_pressure;BME280_temperature;BME280_humidity;BME280_pressure;Samples;Min_cycle;Max_cycle;Signal;HPM_P1;HPM_P2
2021/03/29 00:02:05;;;;;;;;;;;;;;;20.17;36.75;102133.03;5116366;28;815;-53
2021/03/29 00:04:30;;;;;;;;;;;;;;;20.18;36.77;102133.88;5116631;28;767;-59
2021/03/29 00:06:56;;;;;;;;;;;;;;;20.12;36.94;102140.47;5115994;28;992;-59
2021/03/29 00:09:21;;;;;;;;;;;;;;;20.08;37.28;102142.91;5115265;28;839;-60
2021/03/29 00:11:47;;;;;;;;;;;;;;;20.07;37.00;102143.19;5115506;28;860;-50
2021/03/29 00:14:12;;;;;;;;;;;;;;;20.15;37.04;102138.00;5115017;28;820;-47
2021/03/29 00:16:38;;;;;;;;;;;;;;;20.22;36.56;102137.75;5115051;28;1909;-48
2021/03/29 00:19:07;;;;;;;;;;;;;;;20.26;36.75;102141.66;5116625;28;759;-52
2021/03/29 00:21:33;;;;;;;;;;;;;;;20.32;36.42;102148.88;5115756;28;961;-48
2021/03/29 00:23:58;;;;;;;;;;;;;;;20.08;36.77;102142.91;5114565;28;870;-50
2021/03/29 00:26:23;;;;;;;;;;;;;;;19.97;37.26;102158.56;5116744;28;800;-64
2021/03/29 00:28:49;;;;;;;;;;;;;;;19.99;37.27;102161.03;5116209;28;740;-54
2021/03/29 00:31:14;;;;;;;;;;;;;;;19.95;37.52;102170.94;5116062;28;815;-64
2021/03/29 00:33:40;;;;;;;;;;;;;;;19.87;37.41;102165.94;5115363;28;831;-47
2021/03/29 00:36:05;;;;;;;;;;;;;;;19.95;37.34;102173.72;5114070;28;1999;-53
2021/03/29 00:38:31;;;;;;;;;;;;;;;20.36;36.59;102168.53;5114472;28;1052;-47
2021/03/29 00:40:57;;;;;;;;;;;;;;;20.36;36.57;102171.28;5116640;28;760;-67
2021/03/29 00:43:24;;;;;;;;;;;;;;;20.34;36.28;102170.69;5114192;28;923;-66
2021/03/29 00:45:49;;;;;;;;;;;;;;;20.16;36.83;102177.47;5117019;28;883;-52
2021/03/29 00:48:16;;;;;;;;;;;;;;;20.03;37.25;102175.16;5118950;28;827;-54
2021/03/29 00:50:41;;;;;;;;;;;;;;;20.17;36.68;102174.47;5118239;28;1006;-55
2021/03/29 00:53:10;;;;;;;;;;;;;;;20.00;37.05;102176.53;5119282;28;961;-52
2021/03/29 00:55:36;;;;;;;;;;;;;;;19.99;37.21;102192.25;5102153;28;1910;-65
2021/03/29 00:58:02;;;;;;;;;;;;;;;20.03;36.93;102181.50;5118926;28;784;-54
2021/03/29 01:00:31;;;;;;;;;;;;;;;19.94;37.42;102194.16;5119891;28;747;-65
2021/03/29 01:02:57;;;;;;;;;;;;;;;19.89;37.19;102196.84;5118485;28;783;-52
2021/03/29 01:05:22;;;;;;;;;;;;;;;19.79;37.49;102198.41;5119696;28;775;-54
2021/03/29 01:07:49;;;;;;;;;;;;;;;19.75;37.53;102197.22;5119143;28;941;-52
2021/03/29 01:10:14;;;;;;;;;;;;;;;19.65;37.69;102202.66;5119841;28;755;-52
2021/03/29 01:12:40;;;;;;;;;;;;;;;19.72;37.51;102206.03;5118252;28;740;-52
2021/03/29 01:15:05;;;;;;;;;;;;;;;19.66;37.59;102212.59;5100983;28;1921;-65
2021/03/29 01:17:32;;;;;;;;;;;;;;;19.85;37.53;102226.06;5119483;28;855;-51
2021/03/29 01:20:00;;;;;;;;;;;;;;;19.98;37.22;102218.19;5118141;28;783;-52
2021/03/29 01:22:26;;;;;;;;;;;;;;;19.99;36.92;102207.97;5118692;28;949;-50
2021/03/29 01:25:00;;;;;;;;;;;;;;;20.03;37.06;102211.06;5118175;28;752;-57
2021/03/29 01:27:43;;;;;;;;;;;;;;;19.91;36.90;102209.31;5119200;28;890;-50
2021/03/29 01:30:09;;;;;;;;;;;;;;;19.96;36.87;102214.03;5117810;28;815;-50
2021/03/29 01:32:34;;;;;;;;;;;;;;;19.93;37.05;102211.81;5119335;28;737;-57
2021/03/29 01:35:00;;;;;;;;;;;;;;;19.82;37.36;102225.50;5118023;28;1409;-63
2021/03/29 01:37:26;;;;;;;;;;;;;;;19.88;37.08;102211.75;5117069;28;1906;-55
2021/03/29 01:39:51;;;;;;;;;;;;;;;20.07;36.70;102221.31;5117901;28;735;-51
2021/03/29 01:42:17;;;;;;;;;;;;;;;19.92;37.16;102221.16;5118232;28;755;-64
2021/03/29 01:44:42;;;;;;;;;;;;;;;19.94;36.91;102227.28;5117047;28;801;-57
2021/03/29 01:47:08;;;;;;;;;;;;;;;19.78;37.35;102235.38;5118933;28;779;-55
2021/03/29 01:49:33;;;;;;;;;;;;;;;19.65;37.62;102242.13;5117840;28;775;-64
2021/03/29 01:51:59;;;;;;;;;;;;;;;19.86;37.42;102231.31;5116210;28;1023;-64
2021/03/29 01:54:24;;;;;;;;;;;;;;;19.76;37.24;102232.03;5118887;28;807;-65
2021/03/29 01:56:49;;;;;;;;;;;;;;;19.75;37.40;102235.03;5117272;28;1909;-54
2021/03/29 01:59:15;;;;;;;;;;;;;;;19.78;37.32;102223.47;5117063;28;835;-66
2021/03/29 02:01:40;;;;;;;;;;;;;;;19.77;37.42;102233.69;5118722;28;819;-53
2021/03/29 02:04:06;;;;;;;;;;;;;;;19.51;37.77;102226.22;5118719;28;839;-66
2021/03/29 02:06:31;;;;;;;;;;;;;;;19.65;37.56;102221.97;5116648;28;1021;-49
2021/03/29 02:08:57;;;;;;;;;;;;;;;19.57;37.88;102231.56;5117954;28;886;-66
2021/03/29 02:11:22;;;;;;;;;;;;;;;19.54;37.91;102237.56;5117270;28;878;-52
2021/03/29 02:13:48;;;;;;;;;;;;;;;19.52;37.88;102236.16;5116657;28;807;-55
2021/03/29 02:16:14;;;;;;;;;;;;;;;19.59;37.70;102228.53;5118389;28;1980;-52
2021/03/29 02:18:40;;;;;;;;;;;;;;;19.49;37.90;102237.53;5118221;28;858;-49
2021/03/29 02:21:11;;;;;;;;;;;;;;;19.69;37.58;102241.63;5117583;28;961;-63
2021/03/29 02:23:36;;;;;;;;;;;;;;;19.55;37.57;102243.94;5117134;28;764;-63
2021/03/29 02:26:03;;;;;;;;;;;;;;;19.49;37.72;102245.81;5116747;28;763;-64
2021/03/29 02:28:28;;;;;;;;;;;;;;;19.47;37.96;102250.72;5116302;28;879;-55
2021/03/29 02:30:54;;;;;;;;;;;;;;;19.62;37.65;102248.16;5117178;28;718;-64
2021/03/29 02:33:19;;;;;;;;;;;;;;;19.48;37.61;102241.38;5116168;28;836;-63
2021/03/29 02:35:45;;;;;;;;;;;;;;;19.52;37.62;102253.56;5116824;28;1975;-54
2021/03/29 02:38:12;;;;;;;;;;;;;;;19.53;37.64;102237.84;5117530;28;973;-64
2021/03/29 02:40:37;;;;;;;;;;;;;;;19.41;37.80;102233.28;5117722;28;775;-50
2021/03/29 02:43:03;;;;;;;;;;;;;;;19.49;37.79;102227.31;5117474;28;992;-62
2021/03/29 02:45:32;;;;;;;;;;;;;;;19.54;37.46;102228.47;5116146;28;934;-61
2021/03/29 02:47:59;;;;;;;;;;;;;;;19.56;37.64;102231.78;5116449;28;866;-58
2021/03/29 02:50:25;;;;;;;;;;;;;;;19.70;37.50;102230.31;5117502;28;1038;-63
2021/03/29 02:52:51;;;;;;;;;;;;;;;19.80;37.22;102244.25;5117748;27;1095;-59
2021/03/29 02:55:17;;;;;;;;;;;;;;;19.70;37.39;102238.59;5116362;28;1972;-59
2021/03/29 02:57:43;;;;;;;;;;;;;;;19.71;37.04;102245.75;5117373;28;843;-60
2021/03/29 03:00:09;;;;;;;;;;;;;;;19.55;37.70;102247.53;5115832;28;868;-54
2021/03/29 03:02:35;;;;;;;;;;;;;;;19.78;37.28;102243.66;5117536;28;759;-57
2021/03/29 03:05:00;;;;;;;;;;;;;;;19.61;37.48;102245.66;5116073;28;763;-59
2021/03/29 03:07:25;;;;;;;;;;;;;;;19.53;37.49;102244.19;5116420;28;1029;-58
2021/03/29 03:09:51;;;;;;;;;;;;;;;19.33;38.07;102255.81;5116270;28;799;-51
2021/03/29 03:12:16;;;;;;;;;;;;;;;19.45;37.88;102252.94;5115873;28;787;-59
2021/03/29 03:14:42;;;;;;;;;;;;;;;20.43;35.80;102268.59;5117195;28;727;-53
2021/03/29 03:17:07;;;;;;;;;;;;;;;20.27;36.15;102266.78;5116123;28;1981;-60
2021/03/29 03:19:34;;;;;;;;;;;;;;;20.34;35.99;102273.78;5117003;28;775;-58
2021/03/29 03:21:59;;;;;;;;;;;;;;;20.04;36.72;102273.47;5116500;28;1009;-56
2021/03/29 03:24:32;;;;;;;;;;;;;;;19.41;38.29;102274.66;5115652;28;1087;-62
2021/03/29 03:27:02;;;;;;;;;;;;;;;19.09;38.90;102278.09;5115262;28;1258;-58
2021/03/29 03:29:28;;;;;;;;;;;;;;;19.76;37.57;102275.38;5117070;28;774;-58
2021/03/29 03:31:53;;;;;;;;;;;;;;;20.70;35.69;102276.00;5117058;28;783;-58
2021/03/29 03:34:19;;;;;;;;;;;;;;;20.20;36.58;102275.28;5115370;28;902;-58
2021/03/29 03:36:44;;;;;;;;;;;;;;;20.20;36.63;102275.28;5116729;28;1917;-49
2021/03/29 03:39:09;;;;;;;;;;;;;;;19.67;37.68;102277.75;5115827;28;875;-46
2021/03/29 03:41:35;;;;;;;;;;;;;;;19.31;38.38;102285.56;5115333;28;1313;-60
2021/03/29 03:44:01;;;;;;;;;;;;;;;20.04;36.92;102281.75;5116988;28;820;-45
2021/03/29 03:46:38;;;;;;;;;;;;;;;20.91;35.01;102278.91;5116967;28;751;-45
2021/03/29 03:49:05;;;;;;;;;;;;;;;21.41;34.00;102282.25;5115577;28;752;-58
2021/03/29 03:51:30;;;;;;;;;;;;;;;20.94;34.88;102278.38;5115138;28;1220;-45
2021/03/29 03:53:56;;;;;;;;;;;;;;;20.78;35.29;102285.75;5115360;28;973;-53
2021/03/29 03:56:21;;;;;;;;;;;;;;;20.26;36.51;102278.91;5115858;28;1976;-61
2021/03/29 03:58:47;;;;;;;;;;;;;;;19.71;37.12;102292.69;5116316;28;850;-59
2021/03/29 04:01:12;;;;;;;;;;;;;;;19.57;37.46;102292.25;5116808;28;771;-51
2021/03/29 04:03:38;;;;;;;;;;;;;;;19.74;37.38;102286.66;5114583;28;867;-61
2021/03/29 04:06:03;;;;;;;;;;;;;;;20.04;36.75;102290.88;5116130;28;921;-58
2021/03/29 04:08:30;;;;;;;;;;;;;;;19.63;37.40;102290.41;5116765;28;838;-48
2021/03/29 04:10:56;;;;;;;;;;;;;;;19.24;38.28;102295.97;5116688;28;771;-56
2021/03/29 04:13:28;;;;;;;;;;;;;;;19.45;38.06;102286.84;5116609;28;759;-56
2021/03/29 04:15:54;;;;;;;;;;;;;;;20.51;35.70;102292.97;5116518;28;1980;-60
2021/03/29 04:18:20;;;;;;;;;;;;;;;20.57;35.69;102299.38;5116427;28;778;-55
2021/03/29 04:20:45;;;;;;;;;;;;;;;20.44;35.93;102297.88;5121191;28;795;-45
2021/03/29 04:23:11;;;;;;;;;;;;;;;19.98;36.62;102300.22;5120030;28;953;-58
2021/03/29 04:25:37;;;;;;;;;;;;;;;19.47;37.79;102295.72;5116968;28;1114;-60
2021/03/29 04:28:03;;;;;;;;;;;;;;;19.86;36.94;102302.28;5119885;28;956;-59
2021/03/29 04:30:28;;;;;;;;;;;;;;;20.82;35.33;102303.47;5112134;28;1085;-46
2021/03/29 04:32:54;;;;;;;;;;;;;;;20.52;35.53;102305.69;5120233;28;799;-53
2021/03/29 04:35:21;;;;;;;;;;;;;;;20.52;35.72;102302.94;5118759;28;1914;-50
2021/03/29 04:37:48;;;;;;;;;;;;;;;19.69;37.20;102303.16;5101889;28;959;-49
2021/03/29 04:40:13;;;;;;;;;;;;;;;19.24;38.42;102312.50;5118871;28;1223;-56
2021/03/29 04:42:39;;;;;;;;;;;;;;;20.00;36.76;102309.06;5119920;28;803;-46
2021/03/29 04:45:05;;;;;;;;;;;;;;;20.85;34.97;102314.81;5120024;28;755;-48
2021/03/29 04:47:31;;;;;;;;;;;;;;;20.34;35.87;102314.34;5118767;28;1423;-51
2021/03/29 04:49:56;;;;;;;;;;;;;;;20.46;35.76;102316.97;5118431;28;994;-45
2021/03/29 04:52:22;;;;;;;;;;;;;;;19.80;37.38;102313.25;5115681;28;962;-52
2021/03/29 04:54:47;;;;;;;;;;;;;;;19.50;38.11;102310.91;5118608;28;815;-47
2021/03/29 04:57:12;;;;;;;;;;;;;;;19.64;37.53;102311.34;5117543;28;1949;-49
2021/03/29 04:59:38;;;;;;;;;;;;;;;20.61;35.66;102305.22;5117915;28;1203;-49
2021/03/29 05:02:03;;;;;;;;;;;;;;;20.41;36.03;102320.53;5119653;28;775;-47
2021/03/29 05:04:29;;;;;;;;;;;;;;;20.26;36.39;102312.06;5119105;28;805;-48
2021/03/29 05:06:54;;;;;;;;;;;;;;;19.94;36.77;102304.56;5119247;28;969;-49
2021/03/29 05:09:20;;;;;;;;;;;;;;;19.26;38.23;102310.31;5119447;28;756;-50
2021/03/29 05:11:47;;;;;;;;;;;;;;;20.05;36.67;102311.88;5119699;28;779;-46
2021/03/29 05:14:13;;;;;;;;;;;;;;;20.75;35.23;102313.91;5119372;28;791;-49
2021/03/29 05:16:38;;;;;;;;;;;;;;;20.35;36.21;102308.56;5119210;28;1992;-45
2021/03/29 05:19:04;;;;;;;;;;;;;;;20.29;36.20;102317.09;5118989;28;1002;-47
2021/03/29 05:21:32;;;;;;;;;;;;;;;19.83;36.93;102309.97;5118867;28;942;-58
2021/03/29 05:23:57;;;;;;;;;;;;;;;19.28;38.10;102319.19;5118870;28;807;-46
2021/03/29 05:26:23;;;;;;;;;;;;;;;19.68;37.77;102315.28;5117122;28;744;-47
2021/03/29 05:28:48;;;;;;;;;;;;;;;20.58;35.55;102325.06;5119368;28;831;-61
2021/03/29 05:31:14;;;;;;;;;;;;;;;20.26;36.45;102317.59;5118157;28;739;-48
2021/03/29 05:33:39;;;;;;;;;;;;;;;20.30;36.00;102310.44;5118854;28;723;-51
2021/03/29 05:36:10;;;;;;;;;;;;;;;19.81;37.23;102311.31;5112695;28;1917;-50
2021/03/29 05:38:36;;;;;;;;;;;;;;;19.48;37.77;102310.34;5112248;28;1150;-56
2021/03/29 05:41:01;;;;;;;;;;;;;;;19.72;37.44;102310.91;5118614;28;784;-48
2021/03/29 05:43:27;;;;;;;;;;;;;;;20.69;35.32;102318.56;5119378;28;689;-60
2021/03/29 05:45:53;;;;;;;;;;;;;;;20.43;35.76;102321.09;5118548;28;858;-59
2021/03/29 05:48:18;;;;;;;;;;;;;;;20.47;35.68;102322.22;5117009;28;883;-49
2021/03/29 05:50:44;;;;;;;;;;;;;;;19.92;36.91;102312.28;5111787;28;1097;-54
2021/03/29 05:53:09;;;;;;;;;;;;;;;19.49;37.80;102315.59;5113982;28;965;-52
2021/03/29 05:55:35;;;;;;;;;;;;;;;19.45;37.99;102313.63;5116614;28;1972;-57
2021/03/29 06:00:36;;;;;;;;;;;;;;;20.76;35.37;102313.66;5118105;28;791;-51
2021/03/29 06:03:20;;;;;;;;;;;;;;;20.41;35.75;102320.53;5118310;28;803;-54
2021/03/29 06:05:46;;;;;;;;;;;;;;;20.11;36.44;102310.00;5118323;28;712;-50
2021/03/29 06:08:11;;;;;;;;;;;;;;;19.78;37.27;102309.03;5137760;27;1017;-50
2021/03/29 06:10:37;;;;;;;;;;;;;;;19.42;38.14;102309.44;5120380;27;684;-58
2021/03/29 06:13:19;;;;;;;;;;;;;;;19.89;37.37;102312.78;5138260;27;783;-59
2021/03/29 06:15:44;;;;;;;;;;;;;;;20.57;35.91;102318.72;5138497;27;1921;-59
2021/03/29 06:18:13;;;;;;;;;;;;;;;20.39;36.24;102317.19;5138164;27;842;-55
2021/03/29 06:20:57;;;;;;;;;;;;;;;20.40;36.30;102318.00;5138887;27;802;-59
2021/03/29 06:23:22;;;;;;;;;;;;;;;19.60;37.68;102313.81;5117826;28;891;-59
2021/03/29 06:25:48;;;;;;;;;;;;;;;19.38;38.18;102313.81;5117856;28;751;-50
2021/03/29 06:28:25;;;;;;;;;;;;;;;19.69;37.84;102316.13;5116822;28;863;-57
2021/03/29 06:30:50;;;;;;;;;;;;;;;19.80;37.51;102310.50;5118036;28;763;-52
2021/03/29 06:33:16;;;;;;;;;;;;;;;19.77;37.45;102315.69;5117473;28;748;-68
2021/03/29 06:35:52;;;;;;;;;;;;;;;19.91;36.91;102305.06;5117809;28;1921;-58
2021/03/29 06:38:19;;;;;;;;;;;;;;;19.80;37.34;102302.22;5117773;28;870;-56
2021/03/29 06:40:50;;;;;;;;;;;;;;;19.97;37.01;102309.56;5117968;28;755;-60
2021/03/29 06:43:19;;;;;;;;;;;;;;;19.88;37.00;102311.13;5116184;28;759;-55
2021/03/29 06:45:44;;;;;;;;;;;;;;;19.81;37.03;102314.94;5117533;28;795;-63
2021/03/29 06:48:16;;;;;;;;;;;;;;;19.98;36.82;102322.28;5114434;28;835;-46
2021/03/29 06:50:42;;;;;;;;;;;;;;;20.13;36.46;102325.22;5115158;28;987;-52
2021/03/29 06:53:07;;;;;;;;;;;;;;;20.13;36.37;102324.38;5136399;27;957;-48
2021/03/29 06:55:33;;;;;;;;;;;;;;;20.16;36.39;102324.69;5137305;27;1969;-63
2021/03/29 06:58:02;;;;;;;;;;;;;;;20.26;36.28;102323.13;5137605;27;819;-51
2021/03/29 07:00:29;;;;;;;;;;;;;;;20.27;36.24;102324.78;5125032;27;877;-49
2021/03/29 07:02:54;;;;;;;;;;;;;;;20.28;36.01;102327.28;5116870;28;782;-63
2021/03/29 07:05:20;;;;;;;;;;;;;;;20.24;36.46;102330.84;5115203;28;862;-64
2021/03/29 07:07:45;;;;;;;;;;;;;;;20.29;36.06;102322.63;5131542;27;1219;-45
2021/03/29 07:10:11;;;;;;;;;;;;;;;20.30;36.34;102324.25;5135638;27;942;-56
2021/03/29 07:12:40;;;;;;;;;;;;;;;20.37;35.94;102324.06;5137250;27;791;-49
2021/03/29 07:15:09;;;;;;;;;;;;;;;20.48;35.94;102328.56;5137725;27;913;-49
2021/03/29 07:17:36;;;;;;;;;;;;;;;20.52;35.73;102321.44;5127804;27;1902;-54
2021/03/29 07:20:02;;;;;;;;;;;;;;;20.57;35.78;102317.91;5116950;28;810;-55
2021/03/29 07:22:27;;;;;;;;;;;;;;;20.62;35.61;102312.38;5130090;27;1016;-58
2021/03/29 07:24:53;;;;;;;;;;;;;;;20.54;35.59;102318.41;5137144;27;731;-52
2021/03/29 07:27:19;;;;;;;;;;;;;;;20.40;35.88;102318.00;5137544;27;755;-50
2021/03/29 07:29:45;;;;;;;;;;;;;;;20.61;35.42;102319.84;5135911;27;811;-53
2021/03/29 07:32:29;;;;;;;;;;;;;;;20.60;35.80;102312.66;5125895;27;878;-58
2021/03/29 07:34:55;;;;;;;;;;;;;;;20.59;35.70;102312.94;5116574;28;747;-53
2021/03/29 07:37:34;;;;;;;;;;;;;;;20.73;35.28;102318.88;5129209;27;1914;-54
2021/03/29 07:40:01;;;;;;;;;;;;;;;20.76;35.31;102307.28;5136967;27;758;-59
2021/03/29 07:42:28;;;;;;;;;;;;;;;20.54;35.71;102312.88;5136480;27;874;-56
2021/03/29 07:45:00;;;;;;;;;;;;;;;20.67;35.58;102312.44;5137191;27;847;-52
2021/03/29 07:47:42;;;;;;;;;;;;;;;20.60;35.57;102312.66;5135570;27;751;-59
2021/03/29 07:50:08;;;;;;;;;;;;;;;20.64;35.49;102311.03;5137220;27;1179;-55
2021/03/29 07:52:35;;;;;;;;;;;;;;;20.66;35.70;102316.28;5135262;27;1012;-57
2021/03/29 07:55:04;;;;;;;;;;;;;;;20.76;35.43;102316.44;5135533;27;779;-54
2021/03/29 07:57:45;;;;;;;;;;;;;;;20.83;35.27;102311.50;5136719;27;1917;-47
2021/03/29 08:00:11;;;;;;;;;;;;;;;21.00;35.01;102308.56;5137268;28;747;-57
2021/03/29 08:02:39;;;;;;;;;;;;;;;20.98;34.99;102307.97;5135609;28;767;-52
2021/03/29 08:05:05;;;;;;;;;;;;;;;20.94;35.14;102306.03;5117970;28;830;-57
2021/03/29 08:07:55;;;;;;;;;;;;;;;20.95;35.03;102307.69;5129984;28;1008;-62
2021/03/29 08:10:20;;;;;;;;;;;;;;;21.02;35.05;102314.66;5137053;28;755;-56
2021/03/29 08:12:55;;;;;;;;;;;;;;;21.17;34.78;102300.09;5136411;28;783;-57
2021/03/29 08:15:20;;;;;;;;;;;;;;;21.11;34.92;102301.19;5136679;28;1902;-56
2021/03/29 08:17:51;;;;;;;;;;;;;;;21.22;34.72;102307.56;5136961;28;827;-56
2021/03/29 08:20:24;;;;;;;;;;;;;;;21.27;34.76;102301.25;5136340;28;802;-57
2021/03/29 08:23:08;;;;;;;;;;;;;;;21.14;35.06;102300.63;5135757;28;976;-53
2021/03/29 08:25:33;;;;;;;;;;;;;;;21.16;34.94;102292.88;5135518;28;792;-55
2021/03/29 08:27:59;;;;;;;;;;;;;;;21.16;34.97;102292.88;5135130;28;1408;-51
2021/03/29 08:30:25;;;;;;;;;;;;;;;21.08;35.09;102287.03;5136317;28;767;-59
2021/03/29 08:32:50;;;;;;;;;;;;;;;21.12;34.86;102279.88;5136626;28;815;-58
2021/03/29 08:35:21;;;;;;;;;;;;;;;21.14;35.00;102275.75;5132783;28;899;-54
2021/03/29 08:37:51;;;;;;;;;;;;;;;21.11;35.11;102280.97;5131956;28;992;-60
2021/03/29 08:40:17;;;;;;;;;;;;;;;21.22;34.64;102277.16;5136652;28;826;-58
2021/03/29 08:42:46;;;;;;;;;;;;;;;21.23;34.71;102275.22;5135909;28;855;-59
2021/03/29 08:45:12;;;;;;;;;;;;;;;21.35;34.37;102281.38;5136502;28;819;-48
2021/03/29 08:47:38;;;;;;;;;;;;;;;21.18;34.82;102274.09;5136507;28;850;-48
2021/03/29 08:50:11;;;;;;;;;;;;;;;20.97;35.14;102266.78;5135885;28;1205;-55
2021/03/29 08:52:40;;;;;;;;;;;;;;;21.13;34.91;102271.31;5135737;28;956;-59
2021/03/29 08:55:05;;;;;;;;;;;;;;;21.29;34.79;102271.38;5136469;28;798;-56
2021/03/29 08:57:32;;;;;;;;;;;;;;;21.39;34.31;102256.75;5135979;28;1909;-57
2021/03/29 09:00:01;;;;;;;;;;;;;;;21.02;35.21;102262.09;5136294;28;742;-58
2021/03/29 09:02:26;;;;;;;;;;;;;;;20.83;35.50;102245.16;5136750;28;794;-50
2021/03/29 09:04:55;;;;;;;;;;;;;;;20.44;36.10;102247.31;5135919;27;810;-53
2021/03/29 09:07:21;;;;;;;;;;;;;;;20.59;35.84;102243.84;5135579;27;972;-57
2021/03/29 09:09:46;;;;;;;;;;;;;;;20.98;35.34;102235.25;5119260;28;802;-54
2021/03/29 09:12:22;;;;;;;;;;;;;;;21.12;35.13;102236.44;5119004;28;782;-51
2021/03/29 09:14:47;;;;;;;;;;;;;;;21.30;34.67;102231.56;5118710;28;731;-55
2021/03/29 09:17:20;;;;;;;;;;;;;;;21.37;34.55;102232.13;5119762;28;1982;-65
2021/03/29 09:19:45;;;;;;;;;;;;;;;21.16;34.73;102220.16;5119376;28;747;-54
2021/03/29 09:22:11;;;;;;;;;;;;;;;20.73;35.68;102225.72;5129857;27;988;-52
2021/03/29 09:24:36;;;;;;;;;;;;;;;20.48;36.28;102221.66;5139988;27;764;-58
2021/03/29 09:27:06;;;;;;;;;;;;;;;20.54;36.13;102207.88;5139968;27;822;-48
2021/03/29 09:29:33;;;;;;;;;;;;;;;20.91;35.47;102221.69;5139560;27;791;-53
2021/03/29 09:32:08;;;;;;;;;;;;;;;21.12;34.90;102210.72;5139656;27;811;-53
2021/03/29 09:34:36;;;;;;;;;;;;;;;21.13;34.76;102215.97;5138113;27;822;-56
2021/03/29 09:37:01;;;;;;;;;;;;;;;21.25;34.77;102206.63;5138726;27;1980;-57
2021/03/29 09:39:27;;;;;;;;;;;;;;;21.20;34.72;102205.50;5134058;27;1187;-58
2021/03/29 09:41:53;;;;;;;;;;;;;;;21.20;34.59;102211.03;5119050;28;791;-48
2021/03/29 09:44:24;;;;;;;;;;;;;;;21.20;34.63;102205.50;5118641;28;815;-50
2021/03/29 09:46:52;;;;;;;;;;;;;;;21.33;34.35;102197.81;5118473;28;960;-57
2021/03/29 09:49:17;;;;;;;;;;;;;;;21.26;34.50;102202.75;5118447;28;799;-57
2021/03/29 09:51:43;;;;;;;;;;;;;;;21.17;34.53;102205.22;5117854;28;1130;-49
2021/03/29 09:54:28;;;;;;;;;;;;;;;21.20;34.54;102202.72;5118009;28;1509;-57
2021/03/29 09:56:53;;;;;;;;;;;;;;;21.23;34.56;102200.53;5118707;28;1918;-58
2021/03/29 09:59:28;;;;;;;;;;;;;;;21.37;34.21;102193.38;5118159;28;735;-57
2021/03/29 10:01:54;;;;;;;;;;;;;;;21.40;34.38;102181.78;5118402;28;982;-57
2021/03/29 10:04:19;;;;;;;;;;;;;;;21.12;34.67;102181.13;5118758;28;823;-55
2021/03/29 10:06:57;;;;;;;;;;;;;;;20.65;35.45;102187.47;5117693;28;1028;-57
2021/03/29 10:09:35;;;;;;;;;;;;;;;20.31;36.12;102179.53;5117723;27;1117;-55
2021/03/29 10:12:01;;;;;;;;;;;;;;;20.61;35.81;102186.38;5116691;28;934;-57
2021/03/29 10:14:30;;;;;;;;;;;;;;;20.79;35.33;102188.72;5117745;28;819;-57
2021/03/29 10:16:55;;;;;;;;;;;;;;;20.90;34.98;102177.72;5118363;28;1913;-57
2021/03/29 10:19:21;;;;;;;;;;;;;;;21.10;34.58;102183.34;5118416;28;871;-56
2021/03/29 10:22:02;;;;;;;;;;;;;;;21.24;34.29;102171.75;5117271;28;976;-55
2021/03/29 10:24:28;;;;;;;;;;;;;;;;;;5118234;28;835;-54
2021/03/29 10:26:53;;;;;;;;;;;;;;;21.26;34.30;102162.09;5118027;28;783;-57
2021/03/29 10:29:27;;;;;;;;;;;;;;;21.30;34.02;102165.16;5117778;28;771;-55
2021/03/29 10:31:53;;;;;;;;;;;;;;;21.40;33.63;102170.69;5118010;28;827;-49
2021/03/29 10:34:18;;;;;;;;;;;;;;;21.36;34.01;102166.81;5117921;28;890;-54
2021/03/29 10:36:43;;;;;;;;;;;;;;;21.58;33.49;102177.69;5116902;28;1922;-56
2021/03/29 10:39:09;;;;;;;;;;;;;;;21.44;33.57;102162.69;5118048;28;751;-54
2021/03/29 10:41:35;;;;;;;;;;;;;;;20.86;34.80;102152.53;5117677;28;747;-53
2021/03/29 10:44:00;;;;;;;;;;;;;;;20.41;35.63;102154.75;5116568;28;827;-55
2021/03/29 10:46:26;;;;;;;;;;;;;;;20.52;35.31;102153.72;5117802;28;779;-56
2021/03/29 10:48:51;;;;;;;;;;;;;;;20.94;34.62;102143.72;5117775;28;834;-56
2021/03/29 10:51:16;;;;;;;;;;;;;;;21.13;34.37;102143.25;5116310;28;1039;-59
2021/03/29 10:53:42;;;;;;;;;;;;;;;21.03;34.63;102138.50;5118177;28;763;-58
2021/03/29 10:56:07;;;;;;;;;;;;;;;21.18;34.15;102140.47;5117412;28;1971;-59
2021/03/29 10:58:33;;;;;;;;;;;;;;;21.24;34.18;102146.84;5117183;28;775;-50
2021/03/29 11:00:58;;;;;;;;;;;;;;;21.45;33.61;102145.81;5115575;28;878;-57
2021/03/29 11:03:24;;;;;;;;;;;;;;;21.60;33.40;102138.66;5117224;28;806;-51
2021/03/29 11:05:49;;;;;;;;;;;;;;;21.01;34.51;102138.78;5117292;28;870;-57
2021/03/29 11:08:17;;;;;;;;;;;;;;;20.81;34.99;102133.97;5117462;28;1008;-57
2021/03/29 11:10:42;;;;;;;;;;;;;;;20.31;35.85;102116.84;5117102;28;874;-55
2021/03/29 11:13:08;;;;;;;;;;;;;;;20.74;35.03;102116.81;5116558;28;787;-59
2021/03/29 11:15:34;;;;;;;;;;;;;;;20.96;34.82;102130.47;5116615;28;1984;-60
2021/03/29 11:18:01;;;;;;;;;;;;;;;21.17;34.39;102123.06;5116583;28;863;-58
2021/03/29 11:20:26;;;;;;;;;;;;;;;21.30;34.04;102127.25;5117033;28;841;-54
2021/03/29 11:22:51;;;;;;;;;;;;;;;21.42;33.84;102118.69;5116556;28;961;-48
2021/03/29 11:25:17;;;;;;;;;;;;;;;21.08;34.37;102113.63;5116828;28;845;-54
2021/03/29 11:27:42;;;;;;;;;;;;;;;20.87;34.99;102109.13;5116577;28;778;-55
2021/03/29 11:30:09;;;;;;;;;;;;;;;20.39;35.81;102111.91;5116518;28;866;-57
2021/03/29 11:32:38;;;;;;;;;;;;;;;20.67;35.31;102107.91;5116587;28;810;-59
2021/03/29 11:35:04;;;;;;;;;;;;;;;20.95;34.92;102103.09;5116601;28;863;-57
2021/03/29 11:37:29;;;;;;;;;;;;;;;21.29;34.21;102108.16;5114989;28;1910;-48
2021/03/29 11:39:55;;;;;;;;;;;;;;;21.29;34.29;102105.38;5116814;28;782;-52
2021/03/29 11:42:20;;;;;;;;;;;;;;;21.37;34.03;102091.84;5116336;28;798;-47
2021/03/29 11:44:46;;;;;;;;;;;;;;;21.43;33.75;102092.66;5116565;28;791;-58
2021/03/29 11:47:11;;;;;;;;;;;;;;;21.20;34.44;102094.84;5116677;28;795;-56
2021/03/29 11:49:36;;;;;;;;;;;;;;;20.80;35.09;102090.88;5116415;28;851;-46
2021/03/29 11:52:02;;;;;;;;;;;;;;;20.72;35.38;102082.25;5115591;28;1070;-46
2021/03/29 11:54:27;;;;;;;;;;;;;;;20.18;36.26;102062.88;5116486;28;851;-57
2021/03/29 11:56:53;;;;;;;;;;;;;;;20.82;35.18;102066.53;5116256;28;1975;-57
2021/03/29 11:59:18;;;;;;;;;;;;;;;21.25;34.18;102071.91;5116146;28;928;-47
2021/03/29 12:09:32;;;;;;;;;;;;;;;20.94;34.96;102066.28;5116259;28;759;-47
2021/03/29 12:14:32;;;;;;;;;;;;;;;20.83;34.85;102050.78;5116202;28;815;-57
2021/03/29 12:16:58;;;;;;;;;;;;;;;21.31;34.06;102043.16;5116559;28;1913;-54
2021/03/29 12:19:24;;;;;;;;;;;;;;;21.43;33.80;102036.50;5115350;28;890;-52
2021/03/29 12:21:50;;;;;;;;;;;;;;;21.32;33.89;102027.38;5115568;28;985;-53
2021/03/29 12:24:17;;;;;;;;;;;;;;;20.97;34.56;102034.50;5116482;28;771;-58
2021/03/29 12:26:43;;;;;;;;;;;;;;;20.83;34.86;102037.81;5115953;28;752;-47
2021/03/29 12:29:09;;;;;;;;;;;;;;;20.54;35.37;102034.63;5097505;28;1362;-55
2021/03/29 12:31:35;;;;;;;;;;;;;;;20.96;34.56;102035.63;5114871;28;756;-54
2021/03/29 12:34:01;;;;;;;;;;;;;;;21.26;34.19;102047.84;5116580;28;835;-46
2021/03/29 12:36:31;;;;;;;;;;;;;;;21.29;33.92;102036.22;5115205;28;1909;-52
2021/03/29 12:39:06;;;;;;;;;;;;;;;21.37;33.76;102038.44;5116153;28;807;-58
2021/03/29 12:41:38;;;;;;;;;;;;;;;21.51;33.49;102036.78;5101320;28;1224;-47
2021/03/29 12:44:09;;;;;;;;;;;;;;;21.11;34.14;102038.44;5119800;28;787;-48
2021/03/29 12:46:34;;;;;;;;;;;;;;;20.95;34.71;102025.66;5120055;28;858;-51
2021/03/29 12:49:06;;;;;;;;;;;;;;;20.65;35.25;102028.03;5119660;28;822;-49
2021/03/29 12:51:32;;;;;;;;;;;;;;;20.73;35.02;102039.69;5118748;28;1030;-50
2021/03/29 12:54:04;;;;;;;;;;;;;;;21.10;34.49;102028.47;5118574;28;1182;-54
2021/03/29 12:56:30;;;;;;;;;;;;;;;21.13;34.18;102029.84;5118083;28;1909;-54
2021/03/29 12:58:55;;;;;;;;;;;;;;;21.27;33.98;102027.38;5120123;28;826;-52
2021/03/29 13:01:21;;;;;;;;;;;;;;;21.30;33.87;102037.88;5119884;28;771;-55
2021/03/29 13:03:53;;;;;;;;;;;;;;;21.28;33.82;102018.81;5118260;28;811;-52
2021/03/29 13:06:28;;;;;;;;;;;;;;;20.94;34.65;102018.47;5119402;28;1024;-51
2021/03/29 13:09:01;;;;;;;;;;;;;;;20.68;35.01;102021.16;5118333;28;914;-52